Tucker, Arkansas
Current Conditions -  °F | °C
As of 6:53 PM on Wednesday 17 Dec 2014 (Local Time) from KPBF Reporting Station
Overcast Overcast  
Wind Chill: 37°   Ceiling: 8000
Heat Index: 40°   Visibility: 10mi
Dew Point: 32°   Wind: 5mph
Humidity: 73%   Direction: 30°NNE
Pressure: 30.26"   Gusts: NA
Location:  34.44°N, 91.95°W
Report Text: KPBF 180053Z AUTO 03004KT 10SM OVC080 04/00 A3026 RMK AO2 SLP247 T00440000
Loading
Personal Weather Stations






























Interactive Weather Map New forecast layout! Learn more

10-Day Weather Forecast

Advertisements
Track Severe Weather on mobile